Time;durP1;ratioP1;P1;durP2;ratioP2;P2;SDS_P1;SDS_P2;PMS_P1;PMS_P2;Temp;Humidity;BMP_temperature;BMP_pressure;BME280_temperature;BME280_humidity;BME280_pressure;Samples;Min_cycle;Max_cycle;Signal;HPM_P1;HPM_P2
2020/12/01 00:03:08;;;;;;;61.90;25.33;;;;;;;1.37;82.24;101065.74;4905350;58;1138284;-89
2020/12/01 00:08:14;;;;;;;135.93;49.10;;;;;;;1.35;82.27;101051.45;4875609;58;1138278;-90
2020/12/01 00:13:19;;;;;;;34.45;17.80;;;;;;;1.34;82.39;101052.80;4900668;59;1140424;-89
2020/12/01 00:18:25;;;;;;;38.47;18.80;;;;;;;1.33;82.46;101051.09;4957583;57;1138248;-90
2020/12/01 00:23:31;;;;;;;39.03;20.00;;;;;;;1.36;82.41;101057.07;4971872;58;1138239;-89
2020/12/01 00:28:37;;;;;;;28.55;15.85;;;;;;;1.39;81.91;101051.73;4859163;58;1138513;-89
2020/12/01 00:33:43;;;;;;;44.00;20.62;;;;;;;1.35;81.95;101037.57;4911655;59;1138541;-90
2020/12/01 00:38:48;;;;;;;27.93;14.87;;;;;;;1.36;81.99;101041.44;4937592;58;1138745;-89
2020/12/01 00:43:54;;;;;;;32.70;16.30;;;;;;;1.38;81.90;101038.75;4962115;58;1138722;-89
2020/12/01 00:48:59;;;;;;;37.87;19.70;;;;;;;1.36;81.72;101032.77;4972302;58;1138244;-90
2020/12/01 00:54:07;;;;;;;26.47;14.70;;;;;;;1.29;81.53;101023.42;4994188;58;1138357;-90
2020/12/01 00:59:13;;;;;;;29.83;16.17;;;;;;;1.20;81.00;101019.36;4973726;58;1138365;-90
2020/12/01 01:04:20;;;;;;;33.70;19.00;;;;;;;1.11;81.24;101014.87;4967150;59;1134346;-90
2020/12/01 01:09:26;;;;;;;45.47;19.37;;;;;;;1.07;81.16;101011.98;4946198;59;1138372;-90
2020/12/01 01:14:31;;;;;;;64.67;28.77;;;;;;;1.01;80.83;101005.19;4893137;58;1138575;-90
2020/12/01 01:19:37;;;;;;;33.75;18.98;;;;;;;0.95;81.15;101001.45;4868887;59;1138496;-89
2020/12/01 01:24:43;;;;;;;48.13;23.40;;;;;;;0.87;80.87;100993.89;4833734;58;1138865;-90
2020/12/01 01:29:49;;;;;;;28.10;14.97;;;;;;;0.77;80.93;100982.03;4862714;58;1138692;-89
2020/12/01 01:34:55;;;;;;;57.17;25.15;;;;;;;0.75;81.06;100982.55;4899242;58;1138841;-90
2020/12/01 01:40:01;;;;;;;30.73;17.27;;;;;;;0.71;81.08;100975.72;4848327;58;1138796;-89
2020/12/01 01:45:06;;;;;;;44.97;21.00;;;;;;;0.64;81.04;100967.67;4886754;58;1138673;-90
2020/12/01 01:50:18;;;;;;;34.23;17.55;;;;;;;0.60;81.14;100975.20;4823891;58;1138967;-89
2020/12/01 01:55:29;;;;;;;30.57;16.07;;;;;;;0.58;81.05;100964.83;4883838;58;1138756;-90
2020/12/01 02:00:56;;;;;;;37.60;18.40;;;;;;;0.54;81.16;100966.25;4865248;58;1138903;-89
2020/12/01 02:05:54;;;;;;;43.17;21.50;;;;;;;0.54;81.19;100955.84;4985568;57;1138634;-90
2020/12/01 02:11:01;;;;;;;48.23;22.77;;;;;;;0.53;81.12;100952.84;4858778;59;1138739;-90
2020/12/01 02:16:07;;;;;;;37.83;18.03;;;;;;;0.49;81.20;100947.31;4858876;59;1138765;-90
2020/12/01 02:21:38;;;;;;;40.23;19.77;;;;;;;0.47;81.15;100957.76;5017067;57;1138654;-90
2020/12/01 02:26:49;;;;;;;39.88;19.73;;;;;;;0.45;81.28;100949.17;4803093;59;1138364;-89
2020/12/01 02:31:55;;;;;;;33.93;18.20;;;;;;;0.45;81.32;100938.77;4797240;60;1138436;-90
2020/12/01 02:37:01;;;;;;;40.47;18.73;;;;;;;0.44;81.25;100936.20;4922320;58;1138326;-90
2020/12/01 02:42:11;;;;;;;33.90;17.70;;;;;;;0.42;81.29;100933.64;4797444;60;1138846;-89
2020/12/01 02:47:17;;;;;;;39.43;20.97;;;;;;;0.40;81.21;100930.23;4968996;58;1138702;-90
2020/12/01 02:52:23;;;;;;;39.80;18.17;;;;;;;0.40;81.38;100930.23;4816745;60;1138796;-90
2020/12/01 02:57:29;;;;;;;36.73;18.57;;;;;;;0.43;81.20;100936.66;4719522;60;1138786;-90
2020/12/01 03:02:34;;;;;;;32.50;15.72;;;;;;;0.44;81.33;100935.76;4824405;59;1139415;-90
2020/12/01 03:07:40;;;;;;;38.67;18.90;;;;;;;0.39;81.02;100919.87;4950800;58;1138371;-90
2020/12/01 03:12:46;;;;;;;34.75;17.62;;;;;;;0.38;81.11;100925.97;5066317;57;1138595;-90
2020/12/01 03:17:51;;;;;;;34.57;17.33;;;;;;;0.33;81.18;100928.69;5069451;57;1138255;-89
2020/12/01 03:22:57;;;;;;;35.37;17.30;;;;;;;0.31;81.19;100930.48;5068118;57;1138387;-90
2020/12/01 03:28:02;;;;;;;41.03;18.57;;;;;;;0.25;81.27;100925.03;5070302;57;1138344;-90
2020/12/01 03:33:08;;;;;;;38.00;18.30;;;;;;;0.22;81.24;100939.41;5073298;57;1138279;-90
2020/12/01 03:38:14;;;;;;;35.17;18.80;;;;;;;0.27;81.37;100943.20;5067969;57;1138325;-90
2020/12/01 03:43:20;;;;;;;34.70;18.30;;;;;;;0.27;81.38;100936.24;5070533;57;1138431;-89
2020/12/01 03:48:26;;;;;;;35.97;18.43;;;;;;;0.28;81.24;100939.25;5069231;57;1138713;-90
2020/12/01 03:53:33;;;;;;;35.63;18.48;;;;;;;0.23;81.31;100932.46;5122245;57;1138386;-90
2020/12/01 03:58:38;;;;;;;37.93;19.03;;;;;;;0.21;81.24;100932.95;5058912;56;1139151;-90
2020/12/01 04:03:44;;;;;;;39.05;19.98;;;;;;;0.20;81.26;100932.09;5086481;57;1138351;-90
2020/12/01 04:08:49;;;;;;;35.98;16.00;;;;;;;0.17;81.31;100934.78;5067128;57;1138747;-89
2020/12/01 04:13:55;;;;;;;39.43;19.80;;;;;;;0.16;81.39;100936.12;5069567;57;1138411;-90
2020/12/01 04:19:00;;;;;;;32.87;17.53;;;;;;;0.11;81.38;100935.42;5065253;57;1138677;-90
2020/12/01 04:24:06;;;;;;;35.73;18.30;;;;;;;0.06;81.37;100925.13;5065683;56;1138406;-89
2020/12/01 04:29:11;;;;;;;38.80;18.50;;;;;;;-0.02;81.70;100924.06;5071028;57;1138319;-90
2020/12/01 04:34:17;;;;;;;36.90;19.33;;;;;;;-0.02;81.66;100931.02;5067495;57;1141050;-89
2020/12/01 04:39:23;;;;;;;36.00;18.30;;;;;;;-0.03;81.61;100937.10;5068866;57;1140704;-89
2020/12/01 04:44:33;;;;;;;34.63;18.07;;;;;;;-0.05;81.69;100944.09;5024742;57;1140390;-89
2020/12/01 04:49:42;;;;;;;42.60;19.87;;;;;;;-0.06;81.64;100934.13;5067517;57;1140996;-90
2020/12/01 04:55:16;;;;;;;44.03;20.43;;;;;;;-0.10;81.62;100932.50;5108718;57;1140963;-89
2020/12/01 05:00:32;;;;;;;43.55;20.30;;;;;;;-0.12;81.62;100926.48;5067275;57;1141303;-89
2020/12/01 05:06:07;;;;;;;42.87;21.20;;;;;;;-0.18;81.76;100932.32;4965366;58;1140936;-89
2020/12/01 05:11:33;;;;;;;42.37;20.37;;;;;;;-0.20;81.77;100938.86;4910566;58;1140639;-90
2020/12/01 05:16:52;;;;;;;43.93;19.97;;;;;;;-0.23;81.86;100933.73;4934344;58;1140790;-90
2020/12/01 05:21:57;;;;;;;45.77;19.90;;;;;;;-0.15;81.90;100932.21;4905290;58;1140521;-90
2020/12/01 05:27:03;;;;;;;38.50;17.43;;;;;;;-0.22;82.02;100929.39;4906745;58;1140396;-90
2020/12/01 05:32:10;;;;;;;46.47;21.17;;;;;;;-0.27;82.07;100925.61;4922009;57;1140503;-90
2020/12/01 05:37:16;;;;;;;47.83;21.90;;;;;;;-0.34;82.38;100924.52;4904996;57;1140611;-89
2020/12/01 05:42:23;;;;;;;41.03;20.63;;;;;;;-0.39;82.63;100920.29;4988289;57;1140342;-89
2020/12/01 05:47:41;;;;;;;47.70;23.20;;;;;;;-0.37;82.79;100926.75;5043496;57;1140352;-89
2020/12/01 05:53:03;;;;;;;45.80;22.05;;;;;;;-0.40;83.04;100927.67;4927863;58;1140850;-90
2020/12/01 05:58:14;;;;;;;56.00;22.77;;;;;;;-0.36;83.02;100933.20;4955719;58;1140536;-90
2020/12/01 06:03:41;;;;;;;55.57;23.17;;;;;;;-0.33;82.94;100936.18;4932384;58;1140535;-90
2020/12/01 06:09:02;;;;;;;47.98;22.05;;;;;;;-0.29;82.95;100949.48;4928172;57;1140648;-89
2020/12/01 06:14:38;;;;;;;51.00;23.80;;;;;;;-0.28;82.82;100952.48;4941646;58;1140748;-89
2020/12/01 06:19:52;;;;;;;46.88;23.65;;;;;;;-0.25;82.85;100947.66;4938466;57;1140490;-90
2020/12/01 06:25:14;;;;;;;51.60;24.00;;;;;;;-0.25;82.79;100951.55;4941312;57;1140824;-89
2020/12/01 06:30:40;;;;;;;58.53;27.03;;;;;;;-0.21;82.73;100966.19;4868368;58;1140868;-89
2020/12/01 06:36:05;;;;;;;48.30;23.15;;;;;;;-0.22;82.79;100965.33;4687478;61;1141398;-89
2020/12/01 06:41:17;;;;;;;41.73;19.30;;;;;;;-0.17;82.72;100968.67;4717199;60;1140580;-89
2020/12/01 06:46:41;;;;;;;61.70;29.67;;;;;;;-0.20;82.85;100966.15;4883139;59;1140563;-90
2020/12/01 06:51:54;;;;;;;64.93;30.10;;;;;;;-0.18;82.84;100967.41;4916079;58;1140529;-89
2020/12/01 06:57:10;;;;;;;62.63;28.00;;;;;;;-0.21;82.89;100961.84;4880966;58;1140878;-90
2020/12/01 07:02:26;;;;;;;54.83;24.97;;;;;;;-0.21;82.88;100959.69;4732993;60;1140536;-90
2020/12/01 07:07:36;;;;;;;60.17;27.00;;;;;;;-0.23;82.93;100964.92;4831764;58;1140864;-89
2020/12/01 07:12:48;;;;;;;58.00;26.67;;;;;;;-0.20;82.87;100968.75;4864347;58;1140577;-90
2020/12/01 07:17:59;;;;;;;62.10;32.85;;;;;;;-0.18;82.84;100973.91;4932860;57;1140907;-89
2020/12/01 07:23:17;;;;;;;65.17;29.32;;;;;;;-0.13;82.82;100983.27;4920427;57;1140481;-89
2020/12/01 07:28:41;;;;;;;60.00;25.60;;;;;;;-0.09;82.62;100984.91;4900311;57;1140855;-90
2020/12/01 07:33:55;;;;;;;;;;;;;;;-0.13;82.67;100979.82;5000922;57;1140476;-90
2020/12/01 07:39:31;;;;;;;60.87;25.37;;;;;;;-0.12;82.95;100990.63;5005171;57;973562;-89
2020/12/01 07:44:42;;;;;;;64.93;29.83;;;;;;;0.01;83.23;100993.30;5012118;57;1138518;-89
2020/12/01 07:50:07;;;;;;;62.58;29.48;;;;;;;0.25;83.54;101003.06;4990873;57;1138797;-89
2020/12/01 07:55:49;;;;;;;61.40;26.37;;;;;;;0.52;82.87;101001.88;5048101;57;1138279;-89
2020/12/01 08:00:57;;;;;;;42.53;20.17;;;;;;;0.81;82.98;101003.18;5069390;56;1138746;-89
2020/12/01 08:06:10;;;;;;;53.90;26.50;;;;;;;0.84;81.15;100997.89;5076495;56;1138538;-89
2020/12/01 08:11:18;;;;;;;83.73;31.57;;;;;;;0.82;80.76;101000.13;5033524;56;1138569;-89
2020/12/01 08:16:28;;;;;;;62.77;28.17;;;;;;;0.81;81.05;101000.58;4992232;57;1138701;-88
2020/12/01 08:21:43;;;;;;;122.90;36.60;;;;;;;0.83;80.85;101007.04;4988397;57;1138706;-89
2020/12/01 08:26:52;;;;;;;89.37;33.55;;;;;;;0.90;81.24;101015.09;4853354;59;1141108;-88
2020/12/01 08:32:11;;;;;;;56.90;25.17;;;;;;;0.95;80.78;101017.94;4857828;59;1138822;-88
2020/12/01 08:37:36;;;;;;;83.90;30.17;;;;;;;1.04;80.65;101025.49;4856301;58;1138940;-89
2020/12/01 08:42:52;;;;;;;82.65;29.67;;;;;;;1.14;80.21;101027.36;4858299;59;1138769;-89
2020/12/01 08:48:01;;;;;;;45.90;21.33;;;;;;;1.22;79.71;101028.44;4854424;59;1138778;-89
2020/12/01 08:53:15;;;;;;;53.13;24.20;;;;;;;1.29;79.66;101035.14;4855176;59;1138750;-89
2020/12/01 08:58:46;;;;;;;50.67;22.62;;;;;;;1.32;79.74;101042.42;4855361;59;1138741;-90
2020/12/01 09:03:58;;;;;;;42.97;19.93;;;;;;;1.35;79.53;101036.27;4854340;59;1138962;-89
2020/12/01 09:09:13;;;;;;;45.80;21.43;;;;;;;1.35;78.53;101041.48;4853957;58;1138789;-89
2020/12/01 09:14:25;;;;;;;44.87;22.63;;;;;;;1.35;79.36;101038.88;4824530;58;1138638;-89
2020/12/01 09:24:46;;;;;;;44.15;21.37;;;;;;;1.37;79.10;101039.23;4867873;58;1138951;-89
2020/12/01 09:29:53;;;;;;;44.45;19.60;;;;;;;1.35;79.07;101031.91;4920047;58;1138880;-89
2020/12/01 09:35:10;;;;;;;54.40;22.60;;;;;;;1.38;78.58;101035.70;4845794;59;1138825;-92
2020/12/01 09:40:16;;;;;;;48.80;20.57;;;;;;;1.39;78.78;101036.10;4842022;58;1138725;-90
2020/12/01 09:45:25;;;;;;;75.77;28.97;;;;;;;1.45;79.02;101039.42;4806768;59;1138835;-90
2020/12/01 09:50:34;;;;;;;57.20;24.47;;;;;;;1.49;78.32;101035.83;4874820;58;1138703;-90
2020/12/01 09:55:57;;;;;;;63.67;25.90;;;;;;;1.43;78.79;101027.74;4895385;59;1138599;-90
2020/12/01 10:37:23;;;;;;;52.47;24.47;;;;;;;1.92;77.00;101036.13;4799020;59;1138527;-89
2020/12/01 10:42:28;;;;;;;46.60;22.00;;;;;;;1.92;76.75;101033.97;4805810;59;1138858;-89
2020/12/01 10:47:34;;;;;;;58.17;26.10;;;;;;;1.96;77.49;101038.18;4805394;59;1138921;-88
2020/12/01 10:52:40;;;;;;;53.85;24.63;;;;;;;1.98;77.60;101043.75;4914350;58;1138655;-89
2020/12/01 10:57:47;;;;;;;57.15;25.57;;;;;;;1.96;77.87;101035.57;4836151;59;1138741;-88
2020/12/01 11:02:53;;;;;;;45.73;21.57;;;;;;;2.14;78.30;101052.36;4842576;59;1138799;-90
2020/12/01 11:08:00;;;;;;;48.30;24.00;;;;;;;2.20;77.54;101062.56;4899184;59;1138340;-88
2020/12/01 11:13:08;;;;;;;40.20;20.83;;;;;;;2.20;77.04;101063.87;4833153;58;1138310;-90
2020/12/01 11:18:13;;;;;;;42.80;22.03;;;;;;;2.15;76.33;101070.55;4902786;58;1138299;-89
2020/12/01 11:23:19;;;;;;;58.77;25.83;;;;;;;2.15;76.82;101074.45;4896042;58;1138294;-90
2020/12/01 11:28:25;;;;;;;56.77;26.40;;;;;;;2.13;76.77;101078.91;4934696;58;1138376;-89
2020/12/01 11:33:30;;;;;;;63.00;28.60;;;;;;;2.17;76.91;101080.48;4908081;58;1138725;-89
2020/12/01 11:38:36;;;;;;;64.80;27.93;;;;;;;2.20;76.81;101086.91;4897788;58;1138806;-88
2020/12/01 11:43:41;;;;;;;66.27;26.13;;;;;;;2.21;76.98;101091.67;4890460;58;1138716;-89
2020/12/01 11:48:47;;;;;;;52.05;25.65;;;;;;;2.19;76.79;101093.02;4893496;58;1138684;-89
2020/12/01 11:53:54;;;;;;;71.95;30.52;;;;;;;2.23;76.40;101090.72;4894465;58;1138693;-90
2020/12/01 11:59:00;;;;;;;69.97;25.97;;;;;;;2.26;76.37;101084.55;4893540;58;1138762;-88
2020/12/01 12:04:07;;;;;;;62.03;26.33;;;;;;;2.23;76.01;101093.33;4908425;58;1138364;-88
2020/12/01 12:09:13;;;;;;;55.80;25.43;;;;;;;2.26;76.01;101094.98;4909384;58;1138920;-89
2020/12/01 12:14:19;;;;;;;53.73;24.97;;;;;;;2.29;75.96;101091.80;4889482;58;1138317;-88
2020/12/01 12:19:24;;;;;;;44.85;21.75;;;;;;;2.29;75.90;101098.80;4862138;58;1138295;-88
2020/12/01 12:24:30;;;;;;;45.63;22.57;;;;;;;2.31;76.16;101094.36;4849775;59;1138852;-89
2020/12/01 12:29:35;;;;;;;42.40;20.40;;;;;;;2.35;76.05;101099.43;4849163;59;1138615;-92
2020/12/01 12:34:42;;;;;;;51.83;24.50;;;;;;;2.35;75.55;101101.19;4845749;59;1138575;-89
2020/12/01 12:39:47;;;;;;;49.33;22.33;;;;;;;2.32;76.01;101101.28;4831214;59;1138723;-89
2020/12/01 12:44:53;;;;;;;45.58;21.85;;;;;;;2.33;75.76;101102.54;4868628;59;1138395;-89
2020/12/01 12:49:58;;;;;;;44.97;20.20;;;;;;;2.33;75.54;101098.63;4912144;59;1138568;-88
2020/12/01 12:55:06;;;;;;;42.27;21.13;;;;;;;2.28;75.58;101094.48;4857279;59;1138279;-89
2020/12/01 13:00:14;;;;;;;42.70;20.10;;;;;;;2.29;76.22;101100.11;4854763;57;1138465;-88
2020/12/01 13:05:19;;;;;;;51.13;21.67;;;;;;;2.34;76.62;101096.42;4847835;59;1138559;-93
2020/12/01 13:10:26;;;;;;;61.63;28.87;;;;;;;2.35;76.53;101109.02;4851356;59;1138553;-89
2020/12/01 13:15:32;;;;;;;70.60;29.87;;;;;;;2.34;76.84;101119.05;4847303;59;1138479;-89
2020/12/01 13:20:38;;;;;;;123.72;48.78;;;;;;;2.34;76.33;101119.05;4887085;59;1138353;-89
2020/12/01 13:25:43;;;;;;;155.80;74.80;;;;;;;2.32;76.42;101130.84;4844350;59;1140614;-89
2020/12/01 13:30:49;;;;;;;63.30;27.17;;;;;;;2.29;76.67;101134.04;4849714;59;1140363;-89
2020/12/01 13:35:54;;;;;;;64.67;27.53;;;;;;;2.29;76.52;101140.56;4839680;58;1138704;-87
2020/12/01 13:41:00;;;;;;;63.63;28.33;;;;;;;2.23;76.46;101147.28;4847621;59;1138332;-88
2020/12/01 13:46:05;;;;;;;57.60;26.87;;;;;;;2.17;76.70;101163.98;4848849;59;1138730;-88
2020/12/01 13:51:11;;;;;;;63.07;29.53;;;;;;;2.19;76.61;101161.33;4848184;59;1138548;-92
2020/12/01 13:56:17;;;;;;;78.10;32.90;;;;;;;2.17;76.94;101167.04;4852659;59;1138726;-88
2020/12/01 14:01:22;;;;;;;73.97;38.50;;;;;;;2.15;76.97;101168.39;4844424;59;1138566;-88
2020/12/01 14:06:28;;;;;;;86.37;36.03;;;;;;;2.18;76.82;101181.80;4867821;59;1138250;-88
2020/12/01 14:11:33;;;;;;;57.20;27.97;;;;;;;2.18;76.78;101184.41;4854237;59;1138710;-87
2020/12/01 14:16:59;;;;;;;55.60;27.10;;;;;;;2.14;76.94;101188.04;4842560;59;1139236;-88
2020/12/01 14:22:26;;;;;;;59.13;26.60;;;;;;;2.16;76.98;101205.33;4841426;59;1138466;-89
2020/12/01 14:27:38;;;;;;;64.30;29.70;;;;;;;2.13;76.54;101209.37;4827900;59;1138598;-89
2020/12/01 14:32:44;;;;;;;60.53;28.53;;;;;;;2.09;77.01;101212.97;4843693;58;1138576;-89
2020/12/01 14:37:50;;;;;;;54.25;27.22;;;;;;;2.03;76.62;101207.48;4883269;59;1138905;-88
2020/12/01 14:43:02;;;;;;;66.57;29.07;;;;;;;2.07;76.64;101213.02;4837855;58;1139095;-88
2020/12/01 14:48:33;;;;;;;70.43;31.30;;;;;;;2.03;76.66;101219.67;4841448;58;1138798;-88
2020/12/01 14:53:46;;;;;;;68.83;30.80;;;;;;;2.00;76.68;101220.61;4840335;58;1138697;-87
2020/12/01 14:59:11;;;;;;;78.97;33.78;;;;;;;2.01;76.90;101228.84;4877747;58;1138560;-88
2020/12/01 15:05:01;;;;;;;122.57;50.57;;;;;;;2.01;77.19;101234.06;4840121;58;1138509;-87
2020/12/01 15:10:19;;;;;;;102.83;48.00;;;;;;;2.00;77.07;101235.41;4866653;58;1141397;-87
2020/12/01 15:15:39;;;;;;;77.63;36.10;;;;;;;1.97;76.82;101238.14;4860744;59;1140404;-88
2020/12/01 15:20:47;;;;;;;89.43;34.57;;;;;;;1.91;76.96;101239.17;4852588;59;1138403;-88
2020/12/01 15:25:55;;;;;;;105.87;44.70;;;;;;;1.89;76.98;101241.41;4727871;60;1138767;-88
2020/12/01 15:31:01;;;;;;;121.82;59.45;;;;;;;1.91;77.10;101250.91;4796281;59;1140636;-88
2020/12/01 15:36:13;;;;;;;503.83;157.20;;;;;;;1.90;76.92;101260.08;4831687;59;1140757;-90
2020/12/01 15:41:22;;;;;;;227.90;76.20;;;;;;;1.86;76.82;101262.36;4943385;57;1142659;-89
2020/12/01 15:46:34;;;;;;;599.50;229.80;;;;;;;1.88;76.83;101265.34;4823963;60;1140453;-88
2020/12/01 15:51:46;;;;;;;105.63;61.00;;;;;;;1.87;76.68;101261.47;4874742;59;1142737;-88
2020/12/01 15:57:31;;;;;;;72.63;32.90;;;;;;;1.82;76.62;101270.75;4862667;58;1141064;-88
2020/12/01 16:02:52;;;;;;;67.35;28.60;;;;;;;1.82;76.65;101275.97;4845850;59;1138422;-88
2020/12/01 16:08:17;;;;;;;69.23;30.97;;;;;;;1.75;76.28;101277.89;4848319;59;1138302;-87
2020/12/01 16:13:42;;;;;;;60.47;28.10;;;;;;;1.72;76.25;101281.88;4919897;57;1138244;-87
2020/12/01 16:19:18;;;;;;;73.73;31.60;;;;;;;1.69;76.11;101283.72;4852846;60;1138227;-87
2020/12/01 16:24:31;;;;;;;94.43;45.87;;;;;;;1.63;76.04;101288.68;4863010;59;1138588;-88
2020/12/01 16:30:08;;;;;;;84.30;39.67;;;;;;;1.61;76.01;101294.83;4921568;58;1138255;-87
2020/12/01 16:35:14;;;;;;;62.20;29.27;;;;;;;1.55;76.04;101314.54;4914149;59;1138327;-87
2020/12/01 16:40:33;;;;;;;64.87;29.60;;;;;;;1.58;76.16;101314.02;4894707;59;1138397;-88
2020/12/01 16:46:03;;;;;;;94.77;37.77;;;;;;;1.55;75.89;101319.30;4923873;59;1138706;-88
2020/12/01 16:51:28;;;;;;;141.87;65.53;;;;;;;1.59;76.01;101331.81;4897879;59;1138246;-88
2020/12/01 16:57:14;;;;;;;115.33;45.43;;;;;;;1.59;76.02;101341.80;4896905;59;1140649;-88
2020/12/01 17:02:59;;;;;;;112.00;44.30;;;;;;;1.56;76.14;101345.78;4892604;59;1140354;-87
2020/12/01 17:08:05;;;;;;;157.07;63.17;;;;;;;1.58;76.20;101354.42;4745861;60;1140609;-88
2020/12/01 17:13:36;;;;;;;316.90;98.10;;;;;;;1.59;76.15;101361.35;4775558;60;1140384;-88
2020/12/01 17:18:43;;;;;;;243.80;80.03;;;;;;;1.59;76.26;101365.70;4756339;60;1140611;-88
2020/12/01 17:23:50;;;;;;;296.23;98.73;;;;;;;1.62;76.49;101373.45;4814998;59;1141042;-88
2020/12/01 17:29:15;;;;;;;197.40;69.82;;;;;;;1.63;76.37;101381.68;4793566;59;1140655;-88
2020/12/01 17:34:41;;;;;;;278.83;87.63;;;;;;;1.64;76.54;101384.70;4808431;59;1140370;-88
2020/12/01 17:40:20;;;;;;;278.98;97.20;;;;;;;1.64;76.41;101391.22;4801036;59;1150605;-88
2020/12/01 17:45:44;;;;;;;404.63;215.77;;;;;;;1.55;76.19;101391.00;4761140;60;1140540;-88
2020/12/01 17:50:54;;;;;;;154.70;55.10;;;;;;;1.60;76.31;101396.95;4878230;58;1142537;-88
2020/12/01 17:56:02;;;;;;;119.40;47.70;;;;;;;1.55;75.97;101392.30;4954592;59;1140511;-88
2020/12/01 18:01:10;;;;;;;103.17;41.60;;;;;;;1.53;76.17;101400.61;4952062;58;1140881;-88
2020/12/01 18:06:17;;;;;;;110.23;48.10;;;;;;;1.55;76.20;101403.17;4958690;57;1140771;-87
2020/12/01 18:11:27;;;;;;;145.70;51.87;;;;;;;1.54;76.07;101408.83;5013441;58;1138816;-88
2020/12/01 18:16:51;;;;;;;114.17;47.53;;;;;;;1.50;75.63;101405.92;4915731;59;1140428;-88
2020/12/01 18:22:13;;;;;;;236.53;81.40;;;;;;;1.45;75.70;101409.09;4977756;57;1140385;-88
2020/12/01 18:27:26;;;;;;;159.23;60.37;;;;;;;1.41;76.01;101411.36;4861775;59;1140598;-88
2020/12/01 18:33:00;;;;;;;124.83;44.57;;;;;;;1.44;76.00;101399.55;4815378;60;1140597;-88
2020/12/01 18:38:10;;;;;;;117.43;41.77;;;;;;;1.43;76.10;101400.89;4902000;57;1140340;-87
2020/12/01 18:43:37;;;;;;;144.37;51.13;;;;;;;1.44;76.25;101411.73;4894714;57;1140377;-87
2020/12/01 18:48:42;;;;;;;125.10;47.80;;;;;;;1.48;76.32;101412.06;4788375;59;1141057;-87
2020/12/01 18:53:50;;;;;;;111.92;42.83;;;;;;;1.44;75.96;101423.46;4795975;59;1140803;-87
2020/12/01 18:58:56;;;;;;;113.42;41.75;;;;;;;1.44;76.19;101425.62;4611090;61;1140707;-87
2020/12/01 19:04:01;;;;;;;89.97;37.25;;;;;;;1.42;76.23;101414.38;4784141;59;1140724;-87
2020/12/01 19:09:07;;;;;;;104.50;41.07;;;;;;;1.44;76.04;101423.02;4845724;58;1138319;-87
2020/12/01 19:14:12;;;;;;;110.20;43.53;;;;;;;1.39;76.10;101435.30;4822435;58;1140518;-87
2020/12/01 19:19:18;;;;;;;96.57;41.83;;;;;;;1.38;76.21;101448.77;4825415;58;1140384;-88
2020/12/01 19:24:28;;;;;;;99.20;41.97;;;;;;;1.37;76.36;101448.84;4869960;59;1138664;-87
2020/12/01 19:29:34;;;;;;;94.50;39.47;;;;;;;1.35;76.46;101455.39;4817146;58;1138733;-87
2020/12/01 19:34:39;;;;;;;96.30;41.03;;;;;;;1.44;76.52;101466.47;4824445;58;1138740;-87
2020/12/01 19:39:45;;;;;;;506.43;156.73;;;;;;;1.45;76.41;101469.04;4923570;57;1138407;-87
2020/12/01 19:44:50;;;;;;;128.13;58.50;;;;;;;1.41;76.34;101467.39;4866039;58;1142575;-88
2020/12/01 19:50:01;;;;;;;557.20;231.63;;;;;;;1.39;76.08;101460.05;4834909;59;1140914;-87
2020/12/01 19:55:08;;;;;;;185.47;62.57;;;;;;;1.29;76.17;101461.19;4853685;58;1142829;-87
2020/12/01 20:00:18;;;;;;;271.53;81.10;;;;;;;1.31;76.22;101468.52;4959034;58;1140414;-87
2020/12/01 20:05:25;;;;;;;383.90;84.23;;;;;;;1.29;76.39;101472.91;4920518;57;1140561;-87
2020/12/01 20:10:31;;;;;;;419.10;122.50;;;;;;;1.26;76.24;101480.80;4921739;58;1140638;-87
2020/12/01 20:15:36;;;;;;;125.03;48.50;;;;;;;1.28;76.07;101485.08;4927251;57;1142654;-87
2020/12/01 20:20:43;;;;;;;129.33;48.67;;;;;;;1.28;76.13;101494.65;4930183;57;1140895;-87
2020/12/01 20:25:48;;;;;;;237.47;87.00;;;;;;;1.31;76.19;101493.28;4927742;58;1140777;-87
2020/12/01 20:30:54;;;;;;;148.73;55.20;;;;;;;1.34;76.40;101504.49;4929359;57;1141005;-87
2020/12/01 20:36:08;;;;;;;112.00;46.50;;;;;;;1.36;76.24;101508.37;4929691;58;1140804;-87
2020/12/01 20:41:14;;;;;;;134.30;52.83;;;;;;;1.29;76.15;101502.44;4910580;58;1140835;-87
2020/12/01 20:46:19;;;;;;;130.87;54.33;;;;;;;1.36;76.11;101514.44;4908862;58;1140989;-85
2020/12/01 20:51:25;;;;;;;96.20;41.17;;;;;;;1.35;76.16;101511.42;4918842;58;1140695;-86
2020/12/01 20:56:31;;;;;;;97.30;43.77;;;;;;;1.33;75.75;101505.83;4935094;58;1138569;-87
2020/12/01 21:01:36;;;;;;;116.50;45.93;;;;;;;1.33;75.95;101511.05;4982589;58;1138706;-87
2020/12/01 21:06:42;;;;;;;104.83;42.23;;;;;;;1.31;76.15;101518.03;4926824;58;1140449;-87
2020/12/01 21:12:08;;;;;;;132.23;48.50;;;;;;;1.27;76.05;101517.69;4960406;57;1140540;-86
2020/12/01 21:17:17;;;;;;;103.93;39.97;;;;;;;1.28;76.26;101525.47;4954965;58;1140636;-87
2020/12/01 21:22:31;;;;;;;128.73;46.87;;;;;;;1.25;76.26;101533.36;4919433;58;1140753;-87
2020/12/01 21:27:58;;;;;;;125.43;48.53;;;;;;;1.21;76.16;101529.13;4969423;57;1140985;-86
2020/12/01 21:33:12;;;;;;;103.90;39.50;;;;;;;1.23;76.49;101531.67;4968215;57;1140543;-87
2020/12/01 21:38:17;;;;;;;;;;;;;;;1.24;76.33;101531.64;4918837;58;1140484;-87
2020/12/01 21:43:50;;;;;;;90.67;39.20;;;;;;;1.18;76.27;101529.64;4811438;59;971748;-87
2020/12/01 21:48:57;;;;;;;116.67;40.50;;;;;;;1.20;76.33;101531.77;4983502;58;1136333;-86
2020/12/01 21:54:22;;;;;;;164.50;52.03;;;;;;;1.15;76.24;101532.30;4926130;58;1150609;-87
2020/12/01 21:59:41;;;;;;;122.63;41.67;;;;;;;1.15;76.37;101534.91;4947896;58;1140803;-87
2020/12/01 22:05:20;;;;;;;146.43;52.70;;;;;;;1.14;76.36;101535.80;4921522;58;1140536;-87
2020/12/01 22:10:36;;;;;;;117.37;41.73;;;;;;;1.13;76.15;101545.81;4903086;58;1140449;-88
2020/12/01 22:15:52;;;;;;;95.00;36.03;;;;;;;1.10;76.22;101546.73;4792300;60;1140495;-88
2020/12/01 22:21:23;;;;;;;81.78;35.76;;;;;;;1.10;75.77;101556.30;4963205;58;1138721;-88
2020/12/01 22:26:42;;;;;;;73.67;30.80;;;;;;;1.05;75.94;101566.84;4961027;58;1138499;-87
2020/12/01 22:32:18;;;;;;;71.13;32.80;;;;;;;1.06;76.02;101559.44;4787072;59;1138440;-88
2020/12/01 22:37:27;;;;;;;83.67;35.20;;;;;;;1.11;76.23;101563.22;4756601;59;1138406;-88
2020/12/01 22:42:42;;;;;;;74.57;32.03;;;;;;;1.11;76.21;101564.08;4807743;60;1136351;-88
2020/12/01 22:48:05;;;;;;;95.20;41.53;;;;;;;1.15;76.37;101567.03;4769000;59;1138381;-87
2020/12/01 22:53:54;;;;;;;73.25;31.20;;;;;;;1.15;75.99;101560.97;4747971;60;1138834;-87
2020/12/01 22:59:00;;;;;;;72.95;33.48;;;;;;;1.11;76.16;101556.27;4752177;59;1138953;-87
2020/12/01 23:04:05;;;;;;;77.60;34.03;;;;;;;1.08;76.16;101559.37;4782137;59;1138383;-88
2020/12/01 23:09:24;;;;;;;79.70;35.60;;;;;;;1.08;76.20;101566.74;4877478;58;1138347;-86
2020/12/01 23:14:38;;;;;;;85.33;37.00;;;;;;;1.04;76.29;101560.77;4958542;58;1138386;-88
2020/12/01 23:19:43;;;;;;;101.58;38.38;;;;;;;1.02;76.27;101562.55;4967845;58;1138415;-87
2020/12/01 23:24:49;;;;;;;127.33;47.77;;;;;;;1.04;76.37;101563.38;4956878;58;1140425;-87
2020/12/01 23:30:08;;;;;;;97.27;35.00;;;;;;;1.03;76.41;101564.70;4972398;58;1140626;-88
2020/12/01 23:35:20;;;;;;;128.30;44.20;;;;;;;1.05;76.46;101562.48;4946224;58;1138303;-87
2020/12/01 23:40:26;;;;;;;91.27;37.47;;;;;;;1.03;76.63;101569.47;4991139;58;1140461;-87
2020/12/01 23:45:33;;;;;;;115.53;43.70;;;;;;;1.02;76.57;101575.57;4949623;58;1138404;-88
2020/12/01 23:50:39;;;;;;;96.23;40.20;;;;;;;0.99;76.62;101581.28;4979391;58;1140408;-87
2020/12/01 23:55:44;;;;;;;78.62;35.23;;;;;;;1.03;76.74;101586.84;4971934;58;1138489;-87
